createdAt,value
2018-10-11T00:00:13.377Z,83.21
2018-10-11T00:02:42.638Z,83.40
2018-10-11T00:05:11.857Z,83.44
2018-10-11T00:07:42.245Z,83.41
2018-10-11T00:10:12.466Z,83.34
2018-10-11T00:12:41.961Z,83.64
2018-10-11T00:15:11.637Z,84.12
2018-10-11T00:17:41.966Z,83.60
2018-10-11T00:20:12.639Z,83.72
2018-10-11T00:22:41.888Z,84.09
2018-10-11T00:25:11.356Z,83.96
2018-10-11T00:27:41.529Z,84.21
2018-10-11T00:30:10.782Z,83.86
2018-10-11T00:32:41.235Z,83.76
2018-10-11T00:35:10.258Z,83.74
2018-10-11T00:37:39.608Z,83.72
2018-10-11T00:40:11.210Z,83.82
2018-10-11T00:42:40.189Z,83.50
2018-10-11T00:45:10.167Z,83.82
2018-10-11T00:47:40.357Z,84.00
2018-10-11T00:50:09.227Z,83.84
2018-10-11T00:52:37.761Z,84.30
2018-10-11T00:55:06.097Z,84.20
2018-10-11T00:57:35.317Z,84.44
2018-10-11T01:00:04.822Z,84.47
2018-10-11T01:02:34.053Z,84.59
2018-10-11T01:05:02.428Z,84.54
2018-10-11T01:07:31.749Z,84.59
2018-10-11T01:10:01.378Z,84.65
2018-10-11T01:12:30.709Z,84.96
2018-10-11T01:14:59.215Z,84.87
2018-10-11T01:17:27.830Z,85.13
2018-10-11T01:19:56.189Z,85.28
2018-10-11T01:22:24.514Z,85.00
2018-10-11T01:24:52.865Z,84.69
2018-10-11T01:27:21.205Z,84.51
2018-10-11T01:29:49.683Z,84.67
2018-10-11T01:32:17.916Z,84.49
2018-10-11T01:34:46.269Z,84.92
2018-10-11T01:37:14.613Z,85.13
2018-10-11T01:42:12.384Z,85.14
2018-10-11T01:44:43.017Z,85.33
2018-10-11T01:47:12.617Z,85.06
2018-10-11T01:49:42.041Z,85.62
2018-10-11T01:52:11.294Z,85.83
2018-10-11T01:54:41.549Z,86.01
2018-10-11T01:57:10.563Z,85.94
2018-10-11T01:59:40.201Z,85.70
2018-10-11T02:02:10.249Z,85.99
2018-10-11T02:04:40.321Z,85.62
2018-10-11T02:07:09.221Z,85.79
2018-10-11T02:09:38.284Z,85.78
2018-10-11T02:12:07.773Z,85.70
2018-10-11T02:14:37.127Z,85.72
2018-10-11T02:17:06.553Z,85.69
2018-10-11T02:19:34.897Z,85.67
2018-10-11T02:22:04.115Z,85.56
2018-10-11T02:24:33.476Z,85.93
2018-10-11T02:27:02.710Z,85.82
2018-10-11T02:29:32.614Z,85.69
2018-10-11T02:32:01.994Z,85.39
2018-10-11T02:34:31.365Z,85.67
2018-10-11T02:37:00.606Z,85.91
2018-10-11T02:39:29.825Z,85.85
2018-10-11T02:41:59.105Z,85.74
2018-10-11T02:44:28.362Z,85.92
2018-10-11T02:46:57.632Z,85.86
2018-10-11T02:49:26.973Z,85.86
2018-10-11T02:51:56.957Z,85.59
2018-10-11T02:54:26.436Z,85.44
2018-10-11T02:57:02.317Z,85.45
2018-10-11T02:59:35.445Z,85.21
2018-10-11T03:02:19.726Z,85.34
2018-10-11T03:04:48.776Z,85.30
2018-10-11T03:07:17.753Z,85.27
2018-10-11T03:09:46.178Z,85.19
2018-10-11T03:12:14.514Z,84.93
2018-10-11T03:14:43.729Z,85.23
2018-10-11T03:17:12.562Z,85.05
2018-10-11T03:19:42.674Z,84.99
2018-10-11T03:22:12.526Z,85.21
2018-10-11T03:24:41.976Z,85.19
2018-10-11T03:27:11.484Z,85.09
2018-10-11T03:29:40.274Z,85.01
2018-10-11T03:32:09.225Z,85.42
2018-10-11T03:34:37.594Z,85.32
2018-10-11T03:37:05.958Z,85.51
2018-10-11T03:39:34.297Z,85.56
2018-10-11T03:42:02.623Z,85.37
2018-10-11T03:44:30.956Z,85.30
2018-10-11T03:46:59.289Z,84.90
2018-10-11T03:49:27.693Z,85.31
2018-10-11T03:51:56.097Z,85.18
2018-10-11T03:54:24.506Z,85.46
2018-10-11T03:56:53.123Z,85.54
2018-10-11T03:59:21.458Z,85.59
2018-10-11T04:01:49.844Z,85.14
2018-10-11T04:04:18.179Z,85.62
2018-10-11T04:06:46.505Z,85.60
2018-10-11T04:09:14.852Z,85.65
2018-10-11T04:11:43.217Z,85.31
2018-10-11T04:14:12.689Z,85.64
2018-10-11T04:16:42.474Z,85.46
2018-10-11T04:19:12.092Z,85.61
2018-10-11T04:21:41.761Z,85.26
2018-10-11T04:24:11.319Z,85.62
2018-10-11T04:26:39.773Z,85.61
2018-10-11T04:29:08.121Z,85.57
2018-10-11T04:31:36.461Z,85.81
2018-10-11T04:34:04.793Z,85.72
2018-10-11T04:36:33.122Z,86.18
2018-10-11T04:39:01.564Z,85.93
2018-10-11T04:41:29.908Z,86.17
2018-10-11T04:43:58.303Z,86.26
2018-10-11T04:46:26.639Z,85.78
2018-10-11T04:48:54.956Z,85.74
2018-10-11T04:51:23.281Z,85.77
2018-10-11T04:53:57.737Z,85.74
2018-10-11T04:56:27.713Z,86.10
2018-10-11T04:58:56.399Z,85.58
2018-10-11T05:01:24.845Z,85.40
2018-10-11T05:03:53.181Z,85.56
2018-10-11T05:06:21.560Z,85.48
2018-10-11T05:08:49.944Z,85.18
2018-10-11T05:11:18.589Z,84.63
2018-10-11T05:13:48.693Z,84.54
2018-10-11T05:16:17.540Z,84.52
2018-10-11T05:18:52.777Z,84.49
2018-10-11T05:21:21.174Z,84.59
2018-10-11T05:23:49.529Z,84.12
2018-10-11T05:26:18.004Z,83.98
2018-10-11T05:28:46.271Z,83.92
2018-10-11T05:31:14.623Z,83.69
2018-10-11T05:33:43.857Z,83.57
2018-10-11T05:36:14.009Z,83.46
2018-10-11T05:38:42.732Z,83.85
2018-10-11T05:41:12.886Z,83.77
2018-10-11T05:43:42.253Z,83.43
2018-10-11T05:46:16.383Z,83.60
2018-10-11T05:48:44.789Z,82.38
2018-10-11T05:51:13.174Z,82.34
2018-10-11T05:53:42.989Z,81.50
2018-10-11T05:56:13.345Z,81.33
2018-10-11T05:58:43.302Z,81.18
2018-10-11T06:01:13.447Z,80.48
2018-10-11T06:03:44.565Z,79.54
2018-10-11T06:06:13.562Z,78.74
2018-10-11T06:08:44.094Z,79.31
2018-10-11T06:11:13.837Z,79.24
2018-10-11T06:13:43.462Z,79.30
2018-10-11T06:16:14.309Z,78.91
2018-10-11T06:18:44.344Z,78.80
2018-10-11T06:21:16.879Z,77.90
2018-10-11T06:23:46.461Z,77.70
2018-10-11T06:26:15.115Z,78.17
2018-10-11T06:28:44.641Z,77.76
2018-10-11T06:31:13.002Z,78.15
2018-10-11T06:33:43.343Z,78.12
2018-10-11T06:36:12.864Z,77.47
2018-10-11T06:38:42.485Z,77.77
2018-10-11T06:41:11.881Z,77.30
2018-10-11T06:43:43.093Z,77.44
2018-10-11T06:46:12.992Z,77.26
2018-10-11T06:48:42.274Z,75.68
2018-10-11T06:51:12.665Z,76.61
2018-10-11T06:53:43.404Z,76.46
2018-10-11T06:56:12.853Z,75.88
2018-10-11T06:58:42.146Z,74.95
2018-10-11T07:01:12.413Z,75.48
2018-10-11T07:03:43.152Z,73.16
2018-10-11T07:06:12.591Z,72.54
2018-10-11T07:08:43.265Z,73.14
2018-10-11T07:11:12.436Z,73.08
2018-10-11T07:13:43.334Z,73.37
2018-10-11T07:16:13.949Z,73.38
2018-10-11T07:18:43.201Z,73.38
2018-10-11T07:21:12.668Z,72.07
2018-10-11T07:23:43.384Z,70.90
2018-10-11T07:26:12.322Z,69.37
2018-10-11T07:28:42.069Z,71.41
2018-10-11T07:31:12.798Z,68.90
2018-10-11T07:33:42.188Z,69.30
2018-10-11T07:36:12.378Z,68.10
2018-10-11T07:38:43.179Z,68.58
2018-10-11T07:41:12.459Z,67.12
2018-10-11T07:43:43.141Z,66.72
2018-10-11T07:46:12.490Z,67.89
2018-10-11T07:48:42.882Z,65.73
2018-10-11T07:51:12.029Z,65.89
2018-10-11T07:53:41.476Z,65.12
2018-10-11T07:56:10.665Z,64.90
2018-10-11T07:58:40.061Z,64.00
2018-10-11T08:01:08.777Z,63.27
2018-10-11T08:03:37.250Z,62.09
2018-10-11T08:06:05.604Z,62.19
2018-10-11T08:08:33.997Z,61.91
2018-10-11T08:11:02.469Z,62.18
2018-10-11T08:13:30.747Z,62.06
2018-10-11T08:15:59.155Z,61.19
2018-10-11T08:18:27.525Z,60.99
2018-10-11T08:20:55.877Z,60.60
2018-10-11T08:23:24.252Z,60.32
2018-10-11T08:25:52.877Z,59.04
2018-10-11T08:28:21.006Z,58.71
2018-10-11T08:30:50.180Z,58.27
2018-10-11T08:33:19.510Z,58.62
2018-10-11T08:35:47.867Z,57.82
2018-10-11T08:38:16.376Z,57.01
2018-10-11T08:40:45.576Z,55.26
2018-10-11T08:43:14.917Z,55.80
2018-10-11T08:45:43.341Z,54.13
2018-10-11T08:48:12.418Z,53.78
2018-10-11T08:50:41.863Z,52.58
2018-10-11T08:53:11.367Z,53.74
2018-10-11T08:55:40.813Z,53.59
2018-10-11T08:58:09.960Z,53.20
2018-10-11T09:00:40.757Z,52.77
2018-10-11T09:03:10.018Z,52.67
2018-10-11T09:05:40.254Z,53.33
2018-10-11T09:08:08.817Z,52.36
2018-10-11T09:10:38.551Z,52.25
2018-10-11T09:13:07.483Z,51.36
2018-10-11T09:15:36.767Z,51.17
2018-10-11T09:18:06.057Z,50.33
2018-10-11T09:20:35.277Z,50.95
2018-10-11T09:23:04.683Z,51.03
2018-10-11T09:25:33.873Z,50.46
2018-10-11T09:28:03.142Z,48.45
2018-10-11T09:30:32.216Z,49.50
2018-10-11T09:33:01.515Z,48.42
2018-10-11T09:35:30.790Z,48.75
2018-10-11T09:37:59.163Z,48.72
2018-10-11T09:40:28.441Z,48.54
2018-10-11T09:42:57.773Z,47.23
2018-10-11T09:45:26.963Z,47.42
2018-10-11T09:47:56.216Z,47.63
2018-10-11T09:50:25.515Z,47.17
2018-10-11T09:52:54.751Z,47.66
2018-10-11T09:55:24.108Z,46.75
2018-10-11T09:57:53.329Z,47.75
2018-10-11T10:00:27.909Z,47.03
2018-10-11T10:02:57.269Z,47.03
2018-10-11T10:05:26.508Z,46.88
2018-10-11T10:07:55.897Z,45.55
2018-10-11T10:10:25.305Z,45.72
2018-10-11T10:12:54.586Z,46.00
2018-10-11T10:15:23.647Z,47.05
2018-10-11T10:17:53.053Z,45.86
2018-10-11T10:20:22.292Z,45.12
2018-10-11T10:22:51.577Z,44.85
2018-10-11T10:25:19.958Z,46.11
2018-10-11T10:27:48.285Z,45.95
2018-10-11T10:30:22.918Z,44.81
2018-10-11T10:32:52.262Z,45.21
2018-10-11T10:35:21.550Z,45.66
2018-10-11T10:37:50.825Z,44.93
2018-10-11T10:40:20.109Z,44.97
2018-10-11T10:42:48.461Z,44.88
2018-10-11T10:45:17.779Z,45.48
2018-10-11T10:47:46.113Z,44.65
2018-10-11T10:50:15.518Z,45.41
2018-10-11T10:52:43.848Z,44.33
2018-10-11T10:55:13.133Z,43.66
2018-10-11T10:57:42.113Z,43.61
2018-10-11T11:00:12.089Z,43.12
2018-10-11T11:02:41.966Z,43.71
2018-10-11T11:05:12.685Z,43.72
2018-10-11T11:07:42.116Z,43.19
2018-10-11T11:10:11.912Z,42.73
2018-10-11T11:12:40.993Z,43.14
2018-10-11T11:15:10.765Z,42.93
2018-10-11T11:17:40.322Z,42.73
2018-10-11T11:20:09.346Z,43.54
2018-10-11T11:22:37.885Z,42.57
2018-10-11T11:25:06.558Z,43.12
2018-10-11T11:27:34.941Z,42.17
2018-10-11T11:30:03.318Z,41.15
2018-10-11T11:32:31.673Z,42.37
2018-10-11T11:35:00.014Z,42.62
2018-10-11T11:37:28.354Z,41.72
2018-10-11T11:39:56.696Z,41.50
2018-10-11T11:42:25.061Z,42.27
2018-10-11T11:44:53.465Z,41.85
2018-10-11T11:47:21.826Z,40.67
2018-10-11T11:49:50.186Z,41.62
2018-10-11T11:52:18.520Z,39.75
2018-10-11T11:54:46.866Z,40.37
2018-10-11T11:57:16.217Z,41.10
2018-10-11T11:59:45.453Z,40.13
2018-10-11T12:02:14.725Z,41.34
2018-10-11T12:04:43.898Z,41.13
2018-10-11T12:07:12.305Z,40.62
2018-10-11T12:09:41.870Z,41.17
2018-10-11T12:12:15.461Z,40.39
2018-10-11T12:14:44.114Z,39.79
2018-10-11T12:17:12.461Z,40.95
2018-10-11T12:19:41.390Z,40.69
2018-10-11T12:22:12.148Z,39.72
2018-10-11T12:24:42.972Z,40.09
2018-10-11T12:27:12.270Z,40.33
2018-10-11T12:29:42.909Z,40.76
2018-10-11T12:32:13.617Z,39.86
2018-10-11T12:34:42.858Z,39.38
2018-10-11T12:37:13.526Z,39.82
2018-10-11T12:39:43.249Z,40.64
2018-10-11T12:42:13.272Z,40.25
2018-10-11T12:44:43.694Z,38.75
2018-10-11T12:47:14.300Z,39.71
2018-10-11T12:49:47.449Z,40.32
2018-10-11T12:52:13.471Z,40.14
2018-10-11T12:54:42.815Z,40.14
2018-10-11T12:57:16.184Z,40.32
2018-10-11T12:59:41.925Z,40.51
2018-10-11T13:02:12.266Z,39.44
2018-10-11T13:04:43.000Z,39.03
2018-10-11T13:07:12.289Z,40.26
2018-10-11T13:09:42.105Z,39.58
2018-10-11T13:12:12.393Z,39.99
2018-10-11T13:14:43.069Z,39.87
2018-10-11T13:17:12.453Z,39.79
2018-10-11T13:19:43.462Z,40.18
2018-10-11T13:22:12.858Z,39.07
2018-10-11T13:24:46.836Z,39.53
2018-10-11T13:27:12.986Z,39.62
2018-10-11T13:29:42.493Z,38.72
2018-10-11T13:32:13.461Z,38.68
2018-10-11T13:34:42.378Z,39.25
2018-10-11T13:37:12.802Z,38.60
2018-10-11T13:39:50.532Z,38.26
2018-10-11T13:42:12.936Z,38.54
2018-10-11T13:44:42.598Z,37.74
2018-10-11T13:47:12.889Z,37.42
2018-10-11T13:49:42.637Z,38.59
2018-10-11T13:52:15.492Z,38.71
2018-10-11T13:54:42.345Z,38.44
2018-10-11T13:57:12.396Z,38.99
2018-10-11T13:59:41.406Z,38.15
2018-10-11T14:02:10.111Z,37.32
2018-10-11T14:04:39.977Z,37.28
2018-10-11T14:07:09.826Z,37.39
2018-10-11T14:09:40.059Z,36.50
2018-10-11T14:12:10.018Z,38.36
2018-10-11T14:14:39.966Z,37.39
2018-10-11T14:17:08.337Z,38.15
2018-10-11T14:19:36.693Z,38.51
2018-10-11T14:22:05.034Z,36.91
2018-10-11T14:24:33.392Z,38.52
2018-10-11T14:27:01.738Z,38.29
2018-10-11T14:29:30.126Z,38.73
2018-10-11T14:31:58.461Z,38.97
2018-10-11T14:34:26.793Z,38.65
2018-10-11T14:36:56.265Z,36.78
2018-10-11T14:39:24.534Z,38.90
2018-10-11T14:41:52.924Z,38.61
2018-10-11T14:44:21.254Z,37.54
2018-10-11T14:46:49.585Z,38.15
2018-10-11T14:49:17.953Z,38.13
2018-10-11T14:51:48.374Z,37.86
2018-10-11T14:54:14.998Z,38.25
2018-10-11T14:56:43.993Z,37.65
2018-10-11T14:59:12.574Z,38.53
2018-10-11T15:01:42.049Z,37.89
2018-10-11T15:04:11.706Z,38.61
2018-10-11T15:06:41.276Z,39.31
2018-10-11T15:09:11.352Z,39.24
2018-10-11T15:11:41.615Z,39.44
2018-10-11T15:14:12.407Z,40.59
2018-10-11T15:16:41.955Z,40.26
2018-10-11T15:19:10.768Z,40.77
2018-10-11T15:21:41.081Z,41.17
2018-10-11T15:24:11.055Z,41.85
2018-10-11T15:26:41.333Z,42.09
2018-10-11T15:29:12.160Z,42.31
2018-10-11T15:31:42.473Z,42.59
2018-10-11T15:34:13.124Z,43.06
2018-10-11T15:36:42.508Z,42.63
2018-10-11T15:39:13.873Z,43.39
2018-10-11T15:41:44.712Z,43.49
2018-10-11T15:44:13.255Z,43.44
2018-10-11T15:46:43.488Z,44.01
2018-10-11T15:49:12.620Z,44.70
2018-10-11T15:51:42.801Z,44.75
2018-10-11T15:54:13.620Z,45.15
2018-10-11T15:56:42.753Z,45.24
2018-10-11T15:59:13.528Z,45.52
2018-10-11T16:01:42.937Z,46.21
2018-10-11T16:04:12.365Z,45.86
2018-10-11T16:06:41.705Z,46.31
2018-10-11T16:09:11.887Z,46.75
2018-10-11T16:11:41.954Z,46.88
2018-10-11T16:14:12.155Z,47.28
2018-10-11T16:16:41.865Z,47.32
2018-10-11T16:19:10.813Z,47.01
2018-10-11T16:21:39.850Z,46.99
2018-10-11T16:24:08.176Z,46.88
2018-10-11T16:26:36.514Z,46.89
2018-10-11T16:29:04.879Z,47.46
2018-10-11T16:31:33.214Z,46.94
2018-10-11T16:34:01.643Z,47.61
2018-10-11T16:36:30.126Z,47.92
2018-10-11T16:38:58.459Z,47.74
2018-10-11T16:41:27.568Z,48.20
2018-10-11T16:43:55.923Z,48.81
2018-10-11T16:46:24.281Z,48.85
2018-10-11T16:48:52.694Z,49.86
2018-10-11T16:51:21.084Z,49.95
2018-10-11T16:53:49.487Z,50.18
2018-10-11T16:56:17.845Z,50.02
2018-10-11T16:58:52.859Z,50.18
2018-10-11T17:01:21.200Z,50.52
2018-10-11T17:03:50.485Z,50.60
2018-10-11T17:06:19.841Z,50.56
2018-10-11T17:08:49.041Z,51.01
2018-10-11T17:11:17.538Z,51.10
2018-10-11T17:13:46.781Z,51.43
2018-10-11T17:16:15.900Z,51.41
2018-10-11T17:18:44.317Z,51.71
2018-10-11T17:21:13.671Z,52.44
2018-10-11T17:23:42.528Z,52.31
2018-10-11T17:26:11.595Z,52.54
2018-10-11T17:28:41.124Z,52.71
2018-10-11T17:31:11.824Z,52.95
2018-10-11T17:33:41.378Z,52.98
2018-10-11T17:36:10.489Z,53.15
2018-10-11T17:38:38.893Z,53.63
2018-10-11T17:41:07.317Z,53.66
2018-10-11T17:43:35.678Z,53.79
2018-10-11T17:46:04.442Z,54.73
2018-10-11T17:48:32.790Z,54.82
2018-10-11T17:51:02.146Z,55.40
2018-10-11T17:53:31.380Z,55.51
2018-10-11T17:55:59.729Z,55.90
2018-10-11T17:58:29.302Z,56.39
2018-10-11T18:00:57.973Z,56.59
2018-10-11T18:03:26.353Z,56.45
2018-10-11T18:05:54.962Z,56.47
2018-10-11T18:08:23.318Z,56.31
2018-10-11T18:10:52.006Z,56.63
2018-10-11T18:13:21.401Z,56.33
2018-10-11T18:15:50.649Z,56.02
2018-10-11T18:18:18.995Z,56.33
2018-10-11T18:20:47.342Z,56.09
2018-10-11T18:23:16.653Z,56.18
2018-10-11T18:25:45.002Z,56.59
2018-10-11T18:28:14.354Z,57.18
2018-10-11T18:30:43.593Z,56.65
2018-10-11T18:33:12.898Z,57.46
2018-10-11T18:35:42.468Z,57.31
2018-10-11T18:38:11.818Z,56.92
2018-10-11T18:40:41.417Z,57.11
2018-10-11T18:43:11.546Z,57.18
2018-10-11T18:45:40.224Z,56.36
2018-10-11T18:48:09.209Z,55.93
2018-10-11T18:50:40.145Z,56.43
2018-10-11T18:53:10.475Z,56.97
2018-10-11T18:55:39.908Z,57.10
2018-10-11T18:58:09.982Z,57.28
2018-10-11T19:00:40.481Z,57.77
2018-10-11T19:03:09.963Z,57.80
2018-10-11T19:05:40.371Z,58.06
2018-10-11T19:08:08.832Z,57.83
2018-10-11T19:10:37.182Z,58.13
2018-10-11T19:13:05.789Z,58.06
2018-10-11T19:15:35.127Z,58.15
2018-10-11T19:18:03.868Z,58.16
2018-10-11T19:20:33.252Z,58.40
2018-10-11T19:23:01.603Z,58.73
2018-10-11T19:25:30.953Z,58.66
2018-10-11T19:28:00.160Z,58.88
2018-10-11T19:30:29.391Z,58.49
2018-10-11T19:32:57.740Z,58.19
2018-10-11T19:35:27.022Z,58.31
2018-10-11T19:37:56.361Z,57.74
2018-10-11T19:40:25.656Z,57.29
2018-10-11T19:42:54.905Z,57.10
2018-10-11T19:45:24.598Z,56.84
2018-10-11T19:47:52.926Z,57.03
2018-10-11T19:50:24.101Z,56.63
2018-10-11T19:52:52.533Z,56.88
2018-10-11T19:55:21.730Z,56.93
2018-10-11T19:57:51.041Z,57.27
2018-10-11T20:00:20.268Z,56.94
2018-10-11T20:02:49.521Z,56.64
2018-10-11T20:05:18.889Z,57.44
2018-10-11T20:07:48.245Z,57.89
2018-10-11T20:10:16.672Z,58.47
2018-10-11T20:12:45.433Z,58.28
2018-10-11T20:15:14.682Z,58.09
2018-10-11T20:17:43.440Z,57.73
2018-10-11T20:20:12.909Z,58.24
2018-10-11T20:22:43.005Z,58.46
2018-10-11T20:25:12.506Z,58.96
2018-10-11T20:27:41.358Z,59.24
2018-10-11T20:30:11.742Z,58.81
2018-10-11T20:32:40.640Z,59.11
2018-10-11T20:35:10.049Z,59.25
2018-10-11T20:37:40.673Z,58.91
2018-10-11T20:40:10.177Z,58.79
2018-10-11T20:42:40.781Z,58.96
2018-10-11T20:45:10.121Z,58.83
2018-10-11T20:47:39.147Z,58.65
2018-10-11T20:50:10.425Z,58.00
2018-10-11T20:52:38.763Z,58.44
2018-10-11T20:55:07.117Z,57.77
2018-10-11T20:57:35.497Z,58.45
2018-10-11T21:00:03.879Z,57.62
2018-10-11T21:02:33.133Z,57.52
2018-10-11T21:05:01.502Z,57.86
2018-10-11T21:07:29.869Z,57.93
2018-10-11T21:09:58.249Z,58.27
2018-10-11T21:12:26.681Z,58.60
2018-10-11T21:14:55.017Z,59.46
2018-10-11T21:17:23.397Z,59.34
2018-10-11T21:19:51.800Z,58.61
2018-10-11T21:22:20.177Z,58.59
2018-10-11T21:24:48.641Z,58.54
2018-10-11T21:27:17.062Z,59.03
2018-10-11T21:29:45.505Z,58.86
2018-10-11T21:32:14.670Z,59.55
2018-10-11T21:34:43.012Z,60.21
2018-10-11T21:37:12.879Z,58.69
2018-10-11T21:39:42.238Z,59.75
2018-10-11T21:42:11.730Z,59.43
2018-10-11T21:44:42.084Z,59.35
2018-10-11T21:47:14.825Z,59.59
2018-10-11T21:49:44.126Z,60.24
2018-10-11T21:52:14.781Z,60.39
2018-10-11T21:54:44.033Z,60.67
2018-10-11T21:57:14.535Z,61.02
2018-10-11T21:59:43.919Z,61.06
2018-10-11T22:02:13.221Z,60.99
2018-10-11T22:04:43.465Z,61.35
2018-10-11T22:07:12.957Z,61.03
2018-10-11T22:09:43.409Z,61.47
2018-10-11T22:12:14.016Z,61.67
2018-10-11T22:14:43.395Z,61.27
2018-10-11T22:17:12.965Z,61.34
2018-10-11T22:19:43.178Z,60.80
2018-10-11T22:22:12.065Z,61.03
2018-10-11T22:24:41.743Z,60.78
2018-10-11T22:27:11.190Z,61.00
2018-10-11T22:29:41.829Z,60.88
2018-10-11T22:32:11.305Z,61.06
2018-10-11T22:34:41.959Z,61.67
2018-10-11T22:37:13.109Z,61.83
2018-10-11T22:39:42.164Z,62.27
2018-10-11T22:42:12.993Z,62.43
2018-10-11T22:44:42.669Z,62.58
2018-10-11T22:47:12.045Z,62.69
2018-10-11T22:49:41.709Z,63.06
2018-10-11T22:52:11.314Z,62.68
2018-10-11T22:54:41.540Z,62.91
2018-10-11T22:57:11.568Z,62.63
2018-10-11T22:59:40.397Z,62.69
2018-10-11T23:02:08.757Z,62.27
2018-10-11T23:04:37.090Z,62.33
2018-10-11T23:07:05.486Z,62.19
2018-10-11T23:09:33.828Z,62.40
2018-10-11T23:12:02.215Z,62.82
2018-10-11T23:14:30.550Z,62.63
2018-10-11T23:16:58.952Z,62.83
2018-10-11T23:19:27.554Z,63.25
2018-10-11T23:21:56.034Z,62.88
2018-10-11T23:24:25.718Z,63.42
2018-10-11T23:26:54.076Z,63.34
2018-10-11T23:29:22.413Z,64.19
2018-10-11T23:31:50.871Z,64.10
2018-10-11T23:34:20.217Z,64.35
2018-10-11T23:36:48.549Z,64.46
2018-10-11T23:39:16.885Z,64.05
2018-10-11T23:41:45.217Z,64.56
2018-10-11T23:44:13.569Z,64.85
2018-10-11T23:46:42.656Z,65.15
2018-10-11T23:49:12.901Z,65.09
2018-10-11T23:51:42.664Z,64.79
2018-10-11T23:54:11.976Z,65.81
2018-10-11T23:56:41.841Z,65.76
2018-10-11T23:59:12.490Z,65.72
